Novato, CA (94945)

11:52 PM PDT on August 04, 2015 (GMT -0700)
Partridge Knolls 2 | | Change Station
CLOSE
Current Station
Personal Weather Station
Location: Novato, CA
Elevation: 131 ft
Nearby Weather Stations

Elev 131 ft 38.13 °N, 122.57 °W | Updated 7 minutes ago

Mostly Cloudy
Mostly Cloudy
61.9 °F
Feels Like 61.9 °F
N
3.1
Wind Variable Wind from SW
Gusts 6.0 mph

Today
High -- | Low -- °F
--% Chance of Precip.
Yesterday
High -- | Low -- °F
Precip. -- in
6:15 AM 8:16 PM
Waning Gibbous, 70% visible
Pressure 30.03 in
Visibility 7.0 miles
Clouds Overcast 2400 ft
Dew Point 57 °F
Humidity 83%
Rainfall in
Snow Depth Not available.
UV 0 out of 12
Pollen 4.90 out of 12
Air Quality Not available.
Flu Activity Not available.
METAR KO69 050635Z AUTO 34004KT 7SM OVC024 15/14 A3003 RMK AO1

More Conditions Fewer Conditions

Pressure 30.03 in
Visibility 7.0 miles
Clouds Overcast 2400 ft
Dew Point 57 °F
Humidity 83%
Rainfall in
Snow Depth Not available.
UV 0 out of 12
Pollen 4.90 out of 12
Air Quality Not available.
Flu Activity Not available.
METAR KO69 050635Z AUTO 34004KT 7SM OVC024 15/14 A3003 RMK AO1

More Conditions Fewer Conditions

10-Day Weather Forecast

×

Almanac

Astronomy

Aug. 04, 2015 Rise Set
Actual Time
Civil Twilight
Nautical Twilight
Astronomical Twilight
Moon
Length of Visible Light
Length of Day
Tomorrow will be .
, % of the Moon is Illuminated

Today's Extremes

State Highs State Lows

Community

WunderPhotos

Upload Photos

1,844,105 photos uploaded!

WunderBlogs® & News

Nearby

Air Quality

  Air Quality AQ Index Pollutant
Not available.

Snow Depth

Station Depth Elevation

Earthquake Activity

City Distance Mag. Time & Date
Minimum magnitude displayed is 2.5.

Coastal Water Temperatures

Place Temperature

Stations

Nearby Weather Stations

Station Location Temp. Windchill Dew Point Humidity Wind Precip. Elev Updated Type